createdAt,value
2022-08-14T00:02:01.522Z,19.00
2022-08-14T00:04:42.308Z,18.00
2022-08-14T00:07:14.139Z,18.33
2022-08-14T00:09:55.876Z,20.00
2022-08-14T00:12:34.098Z,20.67
2022-08-14T00:15:19.388Z,17.33
2022-08-14T00:17:53.281Z,18.33
2022-08-14T00:20:30.598Z,18.67
2022-08-14T00:23:16.482Z,18.00
2022-08-14T00:25:58.809Z,18.00
2022-08-14T00:28:35.105Z,20.67
2022-08-14T00:31:04.642Z,17.67
2022-08-14T00:33:51.984Z,21.00
2022-08-14T00:36:34.911Z,18.67
2022-08-14T00:39:09.684Z,18.67
2022-08-14T00:41:38.889Z,20.33
2022-08-14T00:44:08.136Z,18.33
2022-08-14T00:46:39.357Z,18.00
2022-08-14T00:49:11.560Z,20.00
2022-08-14T00:51:45.573Z,21.00
2022-08-14T00:54:21.742Z,21.00
2022-08-14T00:56:55.735Z,19.00
2022-08-14T00:59:25.362Z,21.00
2022-08-14T01:01:57.609Z,17.00
2022-08-14T01:04:38.215Z,18.33
2022-08-14T01:07:21.647Z,17.67
2022-08-14T01:10:01.358Z,16.67
2022-08-14T01:12:30.129Z,16.00
2022-08-14T01:14:59.329Z,17.67
2022-08-14T01:17:49.263Z,18.00
2022-08-14T01:20:39.647Z,18.33
2022-08-14T01:23:16.689Z,20.00
2022-08-14T01:25:48.898Z,21.67
2022-08-14T01:28:47.378Z,22.33
2022-08-14T01:31:09.346Z,16.00
2022-08-14T01:33:59.677Z,18.67
2022-08-14T01:36:36.981Z,17.00
2022-08-14T01:39:09.746Z,19.00
2022-08-14T01:41:44.060Z,19.00
2022-08-14T01:44:32.501Z,20.67
2022-08-14T01:47:05.927Z,20.67
2022-08-14T01:49:35.384Z,16.67
2022-08-14T01:52:09.026Z,19.00
2022-08-14T01:54:57.960Z,19.00
2022-08-14T01:57:26.775Z,20.00
2022-08-14T02:00:19.236Z,20.00
2022-08-14T02:02:52.775Z,20.33
2022-08-14T02:05:21.674Z,20.00
2022-08-14T02:08:09.108Z,25.33
2022-08-14T02:10:46.991Z,20.00
2022-08-14T02:13:16.947Z,20.00
2022-08-14T02:15:45.756Z,18.00
2022-08-14T02:18:18.151Z,23.00
2022-08-14T02:20:49.000Z,18.67
2022-08-14T02:23:24.221Z,19.33
2022-08-14T02:26:18.132Z,21.33
2022-08-14T02:28:58.028Z,21.33
2022-08-14T02:31:41.897Z,19.33
2022-08-14T02:34:22.474Z,18.67
2022-08-14T02:37:04.221Z,21.00
2022-08-14T02:39:37.125Z,21.00
2022-08-14T02:42:06.594Z,19.00
2022-08-14T02:44:42.958Z,22.00
2022-08-14T02:47:14.697Z,22.00
2022-08-14T02:49:43.309Z,22.33
2022-08-14T02:52:54.627Z,21.33
2022-08-14T02:55:01.082Z,18.00
2022-08-14T02:57:39.869Z,19.00
2022-08-14T03:00:10.567Z,19.33
2022-08-14T03:02:56.408Z,22.00
2022-08-14T03:05:33.098Z,18.00
2022-08-14T03:08:08.491Z,21.00
2022-08-14T03:10:41.781Z,19.00
2022-08-14T03:13:19.437Z,21.33
2022-08-14T03:15:56.067Z,20.00
2022-08-14T03:18:32.119Z,20.33
2022-08-14T03:21:05.617Z,21.00
2022-08-14T03:23:36.316Z,18.00
2022-08-14T03:26:08.791Z,18.00
2022-08-14T03:28:42.259Z,17.33
2022-08-14T03:31:13.016Z,22.67
2022-08-14T03:33:43.410Z,17.33
2022-08-14T03:37:51.281Z,18.00
2022-08-14T03:39:14.168Z,19.50
2022-08-14T03:41:51.115Z,19.50
2022-08-14T03:45:25.914Z,18.67
2022-08-14T03:47:08.246Z,19.67
2022-08-14T03:49:42.182Z,19.00
2022-08-14T03:52:37.546Z,21.00
2022-08-14T03:55:00.531Z,20.33
2022-08-14T03:57:32.601Z,18.67
2022-08-14T04:00:04.761Z,24.00
2022-08-14T04:02:47.166Z,20.00
2022-08-14T04:05:16.447Z,19.33
2022-08-14T04:07:49.681Z,19.00
2022-08-14T04:10:32.175Z,18.00
2022-08-14T04:13:04.150Z,21.00
2022-08-14T04:15:52.820Z,20.33
2022-08-14T04:18:21.366Z,18.00
2022-08-14T04:20:54.174Z,22.00
2022-08-14T04:23:29.946Z,19.00
2022-08-14T04:26:03.620Z,22.33
2022-08-14T04:29:01.858Z,20.67
2022-08-14T04:32:56.381Z,19.00
2022-08-14T04:34:17.100Z,17.00
2022-08-14T04:37:12.127Z,18.33
2022-08-14T04:39:59.246Z,20.00
2022-08-14T04:42:47.120Z,16.00
2022-08-14T04:45:20.491Z,17.67
2022-08-14T04:48:06.631Z,20.00
2022-08-14T04:50:44.071Z,20.67
2022-08-14T04:53:14.663Z,22.00
2022-08-14T04:55:50.055Z,19.00
2022-08-14T04:58:32.800Z,20.00
2022-08-14T05:01:04.157Z,20.33
2022-08-14T05:03:33.550Z,18.00
2022-08-14T05:06:03.019Z,21.50
2022-08-14T05:08:50.476Z,21.00
2022-08-14T05:11:19.973Z,21.00
2022-08-14T05:16:37.771Z,20.00
2022-08-14T05:19:18.109Z,24.00
2022-08-14T05:22:16.057Z,19.67
2022-08-14T05:24:51.452Z,20.00
2022-08-14T05:27:22.327Z,18.50
2022-08-14T05:29:56.899Z,18.00
2022-08-14T05:32:36.920Z,19.00
2022-08-14T05:35:05.326Z,18.33
2022-08-14T05:37:33.455Z,20.33
2022-08-14T05:40:02.569Z,22.00
2022-08-14T05:42:34.106Z,16.33
2022-08-14T05:45:04.161Z,19.33
2022-08-14T05:47:39.421Z,18.67
2022-08-14T05:50:09.735Z,20.00
2022-08-14T05:52:48.258Z,18.67
2022-08-14T05:55:16.997Z,21.00
2022-08-14T05:57:52.797Z,18.33
2022-08-14T06:00:28.500Z,18.33
2022-08-14T06:03:04.105Z,18.67
2022-08-14T06:05:35.130Z,17.33
2022-08-14T06:08:36.729Z,23.67
2022-08-14T06:11:04.539Z,21.67
2022-08-14T06:13:44.457Z,17.00
2022-08-14T06:16:18.710Z,17.67
2022-08-14T06:18:52.569Z,18.67
2022-08-14T06:21:24.169Z,22.00
2022-08-14T06:23:52.382Z,27.33
2022-08-14T06:26:22.495Z,21.00
2022-08-14T06:28:52.414Z,22.00
2022-08-14T06:31:22.882Z,22.67
2022-08-14T06:35:04.644Z,18.33
2022-08-14T06:36:39.549Z,16.00
2022-08-14T06:39:10.000Z,17.00
2022-08-14T06:41:57.481Z,18.33
2022-08-14T06:44:32.294Z,19.00
2022-08-14T06:47:03.130Z,24.00
2022-08-14T06:49:40.628Z,16.33
2022-08-14T06:52:16.045Z,19.00
2022-08-14T06:54:45.387Z,15.67
2022-08-14T06:57:13.850Z,17.33
2022-08-14T06:59:42.073Z,18.67
2022-08-14T07:02:29.221Z,19.00
2022-08-14T07:05:21.074Z,13.33
2022-08-14T07:07:51.968Z,15.67
2022-08-14T07:10:24.998Z,16.00
2022-08-14T07:13:01.877Z,15.00
2022-08-14T07:15:33.963Z,12.67
2022-08-14T07:18:08.868Z,16.67
2022-08-14T07:20:37.712Z,17.33
2022-08-14T07:23:09.184Z,17.00
2022-08-14T07:25:42.220Z,20.00
2022-08-14T07:28:20.521Z,17.33
2022-08-14T07:30:51.908Z,17.00
2022-08-14T07:33:24.653Z,17.00
2022-08-14T07:35:59.402Z,14.67
2022-08-14T07:38:35.841Z,15.00
2022-08-14T07:41:06.933Z,16.67
2022-08-14T07:43:44.061Z,16.00
2022-08-14T07:46:21.035Z,18.33
2022-08-14T07:48:57.060Z,19.67
2022-08-14T07:51:26.169Z,21.00
2022-08-14T07:54:06.929Z,17.00
2022-08-14T07:56:47.114Z,16.00
2022-08-14T07:59:18.663Z,16.33
2022-08-14T08:01:48.110Z,18.00
2022-08-14T08:04:24.257Z,17.00
2022-08-14T08:06:53.262Z,17.00
2022-08-14T08:09:24.609Z,16.00
2022-08-14T08:12:05.138Z,16.00
2022-08-14T08:14:56.004Z,17.00
2022-08-14T08:17:25.797Z,17.00
2022-08-14T08:19:53.870Z,17.00
2022-08-14T08:22:23.826Z,17.00
2022-08-14T08:24:55.290Z,16.33
2022-08-14T08:27:25.882Z,15.00
2022-08-14T08:30:02.875Z,16.00
2022-08-14T08:32:37.954Z,14.67
2022-08-14T08:35:10.437Z,19.00
2022-08-14T08:37:40.333Z,16.00
2022-08-14T08:40:12.301Z,17.00
2022-08-14T08:42:53.140Z,14.33
2022-08-14T08:45:21.841Z,17.00
2022-08-14T08:47:52.056Z,16.00
2022-08-14T08:50:23.521Z,17.33
2022-08-14T08:53:02.870Z,15.00
2022-08-14T08:55:40.690Z,14.33
2022-08-14T08:58:16.622Z,14.00
2022-08-14T09:00:50.506Z,19.67
2022-08-14T09:03:29.217Z,15.00
2022-08-14T09:06:59.582Z,16.00
2022-08-14T09:08:53.780Z,15.33
2022-08-14T09:11:25.026Z,19.33
2022-08-14T09:13:55.120Z,15.00
2022-08-14T09:16:25.738Z,15.00
2022-08-14T09:18:55.307Z,15.67
2022-08-14T09:21:24.068Z,16.00
2022-08-14T09:24:28.679Z,16.67
2022-08-14T09:26:43.880Z,16.00
2022-08-14T09:29:17.414Z,15.67
2022-08-14T09:31:53.363Z,16.00
2022-08-14T09:34:47.516Z,13.00
2022-08-14T09:37:30.138Z,15.00
2022-08-14T09:40:00.674Z,13.00
2022-08-14T09:42:50.176Z,16.00
2022-08-14T09:45:40.049Z,14.00
2022-08-14T09:48:30.204Z,14.00
2022-08-14T09:54:18.643Z,16.33
2022-08-14T09:56:24.371Z,14.33
2022-08-14T09:59:14.878Z,14.00
2022-08-14T10:01:45.942Z,17.33
2022-08-14T10:04:34.943Z,14.00
2022-08-14T10:07:08.378Z,14.00
2022-08-14T10:09:59.791Z,12.00
2022-08-14T10:12:46.407Z,14.00
2022-08-14T10:15:19.687Z,9.00
2022-08-14T10:17:49.197Z,8.67
2022-08-14T10:20:39.445Z,12.00
2022-08-14T10:23:16.250Z,6.00
2022-08-14T10:25:50.855Z,17.00
2022-08-14T10:28:39.033Z,15.00
2022-08-14T10:31:16.654Z,14.00
2022-08-14T10:34:13.030Z,9.67
2022-08-14T10:36:47.687Z,8.67
2022-08-14T10:39:20.618Z,7.33
2022-08-14T10:41:53.710Z,7.67
2022-08-14T10:44:29.828Z,16.00
2022-08-14T10:47:41.249Z,14.00
2022-08-14T10:50:00.027Z,16.00
2022-08-14T10:52:31.825Z,13.33
2022-08-14T10:55:08.300Z,16.00
2022-08-14T10:57:46.938Z,16.67
2022-08-14T11:00:20.426Z,14.00
2022-08-14T11:03:26.913Z,13.33
2022-08-14T11:06:22.565Z,14.00
2022-08-14T11:08:53.041Z,5.33
2022-08-14T11:11:28.602Z,5.00
2022-08-14T11:14:06.689Z,5.00
2022-08-14T11:16:40.716Z,5.00
2022-08-14T11:19:10.756Z,5.00
2022-08-14T11:21:40.505Z,6.33
2022-08-14T11:24:50.670Z,3.00
2022-08-14T11:27:03.508Z,5.00
2022-08-14T11:29:35.996Z,8.00
2022-08-14T11:32:05.043Z,7.00
2022-08-14T11:34:36.635Z,7.00
2022-08-14T11:37:22.913Z,9.67
2022-08-14T11:40:01.945Z,15.67
2022-08-14T11:42:57.237Z,16.67
2022-08-14T11:45:18.967Z,3.50
2022-08-14T11:48:10.847Z,6.67
2022-08-14T11:50:41.863Z,14.67
2022-08-14T11:53:31.392Z,14.67
2022-08-14T11:56:05.475Z,15.00
2022-08-14T11:58:35.444Z,12.00
2022-08-14T12:01:06.720Z,14.00
2022-08-14T12:03:46.745Z,15.00
2022-08-14T12:06:29.125Z,5.33
2022-08-14T12:09:13.824Z,7.00
2022-08-14T12:11:46.853Z,7.33
2022-08-14T12:14:30.532Z,16.33
2022-08-14T12:17:04.733Z,15.00
2022-08-14T12:19:43.889Z,15.00
2022-08-14T12:22:13.565Z,12.00
2022-08-14T12:24:57.744Z,12.00
2022-08-14T12:27:43.512Z,12.67
2022-08-14T12:30:37.745Z,14.67
2022-08-14T12:33:24.069Z,12.33
2022-08-14T12:35:56.311Z,13.00
2022-08-14T12:38:35.989Z,11.67
2022-08-14T12:41:09.343Z,12.00
2022-08-14T12:43:48.184Z,11.67
2022-08-14T12:46:28.594Z,13.33
2022-08-14T12:48:59.049Z,11.00
2022-08-14T12:51:28.003Z,14.00
2022-08-14T12:53:59.603Z,13.00
2022-08-14T12:56:33.620Z,15.00
2022-08-14T12:59:03.481Z,12.33
2022-08-14T13:01:59.059Z,13.00
2022-08-14T13:04:22.888Z,14.00
2022-08-14T13:06:53.092Z,5.33
2022-08-14T13:09:23.337Z,7.33
2022-08-14T13:12:35.107Z,4.67
2022-08-14T13:14:59.034Z,3.33
2022-08-14T13:17:28.387Z,5.00
2022-08-14T13:19:58.190Z,8.00
2022-08-14T13:22:33.198Z,2.67
2022-08-14T13:25:05.270Z,6.00
2022-08-14T13:27:39.306Z,5.00
2022-08-14T13:30:14.375Z,5.00
2022-08-14T13:32:49.287Z,8.00
2022-08-14T13:35:18.867Z,7.00
2022-08-14T13:37:52.394Z,7.00
2022-08-14T13:40:26.012Z,7.00
2022-08-14T13:42:57.327Z,5.00
2022-08-14T13:45:32.617Z,5.00
2022-08-14T13:48:18.448Z,8.00
2022-08-14T13:51:04.223Z,4.33
2022-08-14T13:53:38.218Z,6.00
2022-08-14T13:56:14.635Z,8.33
2022-08-14T13:59:00.539Z,6.33
2022-08-14T14:01:29.933Z,5.00
2022-08-14T14:04:00.513Z,6.00
2022-08-14T14:06:31.597Z,5.00
2022-08-14T14:09:01.802Z,6.00
2022-08-14T14:11:30.125Z,6.33
2022-08-14T14:14:00.213Z,6.00
2022-08-14T14:16:30.766Z,8.67
2022-08-14T14:19:09.694Z,7.00
2022-08-14T14:21:40.793Z,14.00
2022-08-14T14:24:14.979Z,9.00
2022-08-14T14:26:47.743Z,9.00
2022-08-14T14:29:24.239Z,5.00
2022-08-14T14:31:54.716Z,7.00
2022-08-14T14:34:29.309Z,6.67
2022-08-14T14:37:03.104Z,7.00
2022-08-14T14:39:37.487Z,6.33
2022-08-14T14:42:08.294Z,7.00
2022-08-14T14:44:41.442Z,9.00
2022-08-14T14:47:11.885Z,9.00
2022-08-14T14:49:51.329Z,7.00
2022-08-14T14:52:26.923Z,16.00
2022-08-14T14:54:59.388Z,16.00
2022-08-14T14:57:35.482Z,14.00
2022-08-14T15:00:22.464Z,16.67
2022-08-14T15:02:52.180Z,13.00
2022-08-14T15:05:21.665Z,11.67
2022-08-14T15:07:51.360Z,14.00
2022-08-14T15:10:27.271Z,16.00
2022-08-14T15:13:04.447Z,15.00
2022-08-14T15:15:37.214Z,17.00
2022-08-14T15:18:14.741Z,21.33
2022-08-14T15:20:43.268Z,21.00
2022-08-14T15:23:16.050Z,19.67
2022-08-14T15:25:52.363Z,14.00
2022-08-14T15:28:22.230Z,13.33
2022-08-14T15:30:57.808Z,14.00
2022-08-14T15:34:01.016Z,12.00
2022-08-14T15:36:35.362Z,11.33
2022-08-14T15:39:03.755Z,10.00
2022-08-14T15:41:33.665Z,11.00
2022-08-14T15:44:24.626Z,10.33
2022-08-14T15:46:58.212Z,11.00
2022-08-14T15:49:34.608Z,13.00
2022-08-14T15:52:04.695Z,14.00
2022-08-14T15:54:34.292Z,12.67
2022-08-14T15:57:08.362Z,12.00
2022-08-14T15:59:58.519Z,14.33
2022-08-14T16:02:29.489Z,13.33
2022-08-14T16:04:57.443Z,14.00
2022-08-14T16:07:27.270Z,14.00
2022-08-14T16:10:27.226Z,16.00
2022-08-14T16:12:47.467Z,14.67
2022-08-14T16:15:17.097Z,13.33
2022-08-14T16:17:46.695Z,16.00
2022-08-14T16:20:41.581Z,11.00
2022-08-14T16:23:11.613Z,11.00
2022-08-14T16:25:42.827Z,11.00
2022-08-14T16:31:00.160Z,12.00
2022-08-14T16:33:59.531Z,13.00
2022-08-14T16:36:30.302Z,11.67
2022-08-14T16:39:00.219Z,11.33
2022-08-14T16:41:29.428Z,10.33
2022-08-14T16:44:04.735Z,10.00
2022-08-14T16:46:42.985Z,14.00
2022-08-14T16:49:13.171Z,15.00
2022-08-14T16:51:42.875Z,16.33
2022-08-14T16:54:34.149Z,15.00
2022-08-14T16:57:22.694Z,14.00
2022-08-14T16:59:52.420Z,17.33
2022-08-14T17:02:34.557Z,13.00
2022-08-14T17:05:21.034Z,13.33
2022-08-14T17:08:28.555Z,18.33
2022-08-14T17:10:55.283Z,19.67
2022-08-14T17:13:47.298Z,18.00
2022-08-14T17:16:24.293Z,16.00
2022-08-14T17:19:01.084Z,15.00
2022-08-14T17:21:31.761Z,16.67
2022-08-14T17:24:02.848Z,14.33
2022-08-14T17:29:56.624Z,12.67
2022-08-14T17:32:56.178Z,15.67
2022-08-14T17:35:25.545Z,18.00
2022-08-14T17:37:55.788Z,14.33
2022-08-14T17:40:30.078Z,15.00
2022-08-14T17:43:02.003Z,13.67
2022-08-14T17:45:41.541Z,14.00
2022-08-14T17:49:10.399Z,15.00
2022-08-14T17:51:24.197Z,12.00
2022-08-14T17:54:01.365Z,13.00
2022-08-14T17:56:32.601Z,12.67
2022-08-14T17:59:02.359Z,12.00
2022-08-14T18:01:35.650Z,11.33
2022-08-14T18:04:24.509Z,13.00
2022-08-14T18:07:08.829Z,11.33
2022-08-14T18:09:57.610Z,14.00
2022-08-14T18:12:36.579Z,13.67
2022-08-14T18:15:16.228Z,15.33
2022-08-14T18:17:53.359Z,14.67
2022-08-14T18:21:40.673Z,16.33
2022-08-14T18:23:14.942Z,12.67
2022-08-14T18:25:47.341Z,14.00
2022-08-14T18:28:18.025Z,13.33
2022-08-14T18:31:18.479Z,11.33
2022-08-14T18:33:53.207Z,12.00
2022-08-14T18:36:47.645Z,15.00
2022-08-14T18:39:21.431Z,12.00
2022-08-14T18:41:51.222Z,13.00
2022-08-14T18:44:38.030Z,12.33
2022-08-14T18:47:14.734Z,11.33
2022-08-14T18:49:57.823Z,10.67
2022-08-14T18:52:37.723Z,12.33
2022-08-14T18:55:20.834Z,12.00
2022-08-14T18:57:58.236Z,11.67
2022-08-14T19:00:32.725Z,13.33
2022-08-14T19:03:01.384Z,12.33
2022-08-14T19:05:39.093Z,14.33
2022-08-14T19:08:27.926Z,16.67
2022-08-14T19:10:59.748Z,16.67
2022-08-14T19:13:27.727Z,18.33
2022-08-14T19:16:17.400Z,14.67
2022-08-14T19:19:00.378Z,14.33
2022-08-14T19:21:29.835Z,14.33
2022-08-14T19:24:27.513Z,14.33
2022-08-14T19:27:14.827Z,13.67
2022-08-14T19:29:47.965Z,14.67
2022-08-14T19:32:32.630Z,14.33
2022-08-14T19:35:14.958Z,13.00
2022-08-14T19:37:52.624Z,17.33
2022-08-14T19:40:29.489Z,18.00
2022-08-14T19:42:59.335Z,16.00
2022-08-14T19:45:30.082Z,14.00
2022-08-14T19:48:02.459Z,16.00
2022-08-14T19:50:40.863Z,17.00
2022-08-14T19:53:12.056Z,16.67
2022-08-14T19:55:57.374Z,14.67
2022-08-14T19:58:54.875Z,13.00
2022-08-14T20:01:37.026Z,12.67
2022-08-14T20:04:45.476Z,13.00
2022-08-14T20:07:00.284Z,15.67
2022-08-14T20:11:05.839Z,24.33
2022-08-14T20:12:29.144Z,16.00
2022-08-14T20:15:08.712Z,15.00
2022-08-14T20:17:40.514Z,12.33
2022-08-14T20:20:31.891Z,17.33
2022-08-14T20:23:10.718Z,17.00
2022-08-14T20:25:55.617Z,15.33
2022-08-14T20:28:31.991Z,13.33
2022-08-14T20:31:14.268Z,17.00
2022-08-14T20:34:03.240Z,12.33
2022-08-14T20:36:31.433Z,14.00
2022-08-14T20:39:00.756Z,16.00
2022-08-14T20:41:28.583Z,14.00
2022-08-14T20:44:15.847Z,18.00
2022-08-14T20:46:50.012Z,13.33
2022-08-14T20:49:27.665Z,14.67
2022-08-14T20:52:00.314Z,15.33
2022-08-14T20:54:36.867Z,16.67
2022-08-14T20:57:17.867Z,16.33
2022-08-14T20:59:48.887Z,17.00
2022-08-14T21:02:30.541Z,15.33
2022-08-14T21:05:16.172Z,18.00
2022-08-14T21:07:51.169Z,14.00
2022-08-14T21:10:33.303Z,14.00
2022-08-14T21:14:09.092Z,13.00
2022-08-14T21:15:57.976Z,14.00
2022-08-14T21:18:28.622Z,13.33
2022-08-14T21:20:58.523Z,15.67
2022-08-14T21:23:32.769Z,13.33
2022-08-14T21:26:03.634Z,15.00
2022-08-14T21:28:35.099Z,14.00
2022-08-14T21:31:07.699Z,12.00
2022-08-14T21:33:36.611Z,11.33
2022-08-14T21:36:07.696Z,13.33
2022-08-14T21:38:38.183Z,16.67
2022-08-14T21:41:43.241Z,15.00
2022-08-14T21:44:17.442Z,17.00
2022-08-14T21:46:54.152Z,18.00
2022-08-14T21:49:24.160Z,15.67
2022-08-14T21:52:00.966Z,18.00
2022-08-14T21:54:49.316Z,16.00
2022-08-14T21:57:56.729Z,12.33
2022-08-14T22:00:35.945Z,13.33
2022-08-14T22:03:04.445Z,15.00
2022-08-14T22:05:32.502Z,13.00
2022-08-14T22:08:03.337Z,13.00
2022-08-14T22:10:35.804Z,15.33
2022-08-14T22:13:05.185Z,12.00
2022-08-14T22:15:33.515Z,14.00
2022-08-14T22:18:04.237Z,13.33
2022-08-14T22:20:33.120Z,12.33
2022-08-14T22:23:04.530Z,13.00
2022-08-14T22:25:40.829Z,13.00
2022-08-14T22:28:12.039Z,13.33
2022-08-14T22:30:41.800Z,14.00
2022-08-14T22:33:13.589Z,12.00
2022-08-14T22:35:41.993Z,15.00
2022-08-14T22:38:37.832Z,15.00
2022-08-14T22:41:25.621Z,13.00
2022-08-14T22:43:48.391Z,12.00
2022-08-14T22:46:20.284Z,14.00
2022-08-14T22:48:49.364Z,14.00
2022-08-14T22:51:19.050Z,13.00
2022-08-14T22:53:48.976Z,12.67
2022-08-14T22:56:22.230Z,13.00
2022-08-14T22:59:04.984Z,15.00
2022-08-14T23:01:56.024Z,12.67
2022-08-14T23:04:34.908Z,11.00
2022-08-14T23:07:22.275Z,12.00
2022-08-14T23:09:55.814Z,13.00
2022-08-14T23:12:28.709Z,14.00
2022-08-14T23:14:58.051Z,13.00
2022-08-14T23:17:27.888Z,13.00
2022-08-14T23:20:18.420Z,15.00
2022-08-14T23:22:51.796Z,12.00
2022-08-14T23:25:57.538Z,14.33
2022-08-14T23:28:32.730Z,14.67
2022-08-14T23:31:01.799Z,11.33
2022-08-14T23:33:29.550Z,11.00
2022-08-14T23:35:58.892Z,14.00
2022-08-14T23:38:30.847Z,13.67
2022-08-14T23:41:00.832Z,12.67
2022-08-14T23:43:31.033Z,13.33
2022-08-14T23:45:59.781Z,14.00
2022-08-14T23:48:28.683Z,14.00
2022-08-14T23:51:00.180Z,12.67
2022-08-14T23:53:47.388Z,12.33
2022-08-14T23:56:31.771Z,12.33
2022-08-14T23:59:01.823Z,11.00
